sensor_id;sensor_type;location;lat;lon;timestamp;pressure;altitude;pressure_sealevel;temperature;humidity
12897;BME280;6516;35.028;32.372;2023-05-01T00:01:18;100005.34;;;11.70;97.01
12897;BME280;6516;35.028;32.372;2023-05-01T00:03:46;99996.53;;;11.71;97.21
12897;BME280;6516;35.028;32.372;2023-05-01T00:06:14;99998.94;;;11.80;97.07
12897;BME280;6516;35.028;32.372;2023-05-01T00:08:41;99996.94;;;11.88;97.02
12897;BME280;6516;35.028;32.372;2023-05-01T00:11:11;99990.44;;;12.01;97.35
12897;BME280;6516;35.028;32.372;2023-05-01T00:13:38;99991.03;;;12.12;97.28
12897;BME280;6516;35.028;32.372;2023-05-01T00:16:10;99991.59;;;12.23;97.11
12897;BME280;6516;35.028;32.372;2023-05-01T00:18:38;99992.34;;;12.28;95.95
12897;BME280;6516;35.028;32.372;2023-05-01T00:21:06;99993.44;;;12.21;95.17
12897;BME280;6516;35.028;32.372;2023-05-01T00:23:33;99997.31;;;12.08;95.53
12897;BME280;6516;35.028;32.372;2023-05-01T00:26:01;99999.78;;;12.14;95.46
12897;BME280;6516;35.028;32.372;2023-05-01T00:28:31;99996.06;;;12.21;95.52
12897;BME280;6516;35.028;32.372;2023-05-01T00:30:58;100000.47;;;12.20;95.82
12897;BME280;6516;35.028;32.372;2023-05-01T00:33:26;99998.72;;;12.21;95.91
12897;BME280;6516;35.028;32.372;2023-05-01T00:35:54;100009.53;;;12.12;96.13
12897;BME280;6516;35.028;32.372;2023-05-01T00:38:21;100002.53;;;12.09;96.27
12897;BME280;6516;35.028;32.372;2023-05-01T00:40:49;100003.50;;;12.07;96.73
12897;BME280;6516;35.028;32.372;2023-05-01T00:43:17;99998.94;;;12.13;96.87
12897;BME280;6516;35.028;32.372;2023-05-01T00:45:47;99995.22;;;12.19;96.67
12897;BME280;6516;35.028;32.372;2023-05-01T00:48:15;99994.25;;;12.23;95.77
12897;BME280;6516;35.028;32.372;2023-05-01T00:50:43;100000.75;;;12.10;94.97
12897;BME280;6516;35.028;32.372;2023-05-01T00:53:12;99999.19;;;12.03;94.84
12897;BME280;6516;35.028;32.372;2023-05-01T00:55:41;100001.97;;;11.97;95.41
12897;BME280;6516;35.028;32.372;2023-05-01T00:58:09;100000.41;;;11.90;95.83
12897;BME280;6516;35.028;32.372;2023-05-01T01:00:37;100002.31;;;11.85;96.19
12897;BME280;6516;35.028;32.372;2023-05-01T01:03:07;99992.59;;;11.85;96.50
12897;BME280;6516;35.028;32.372;2023-05-01T01:05:50;99998.94;;;11.80;96.56
12897;BME280;6516;35.028;32.372;2023-05-01T01:08:26;100008.63;;;11.78;96.68
12897;BME280;6516;35.028;32.372;2023-05-01T01:11:02;100016.53;;;11.78;96.60
12897;BME280;6516;35.028;32.372;2023-05-01T01:13:45;100020.00;;;11.81;96.61
12897;BME280;6516;35.028;32.372;2023-05-01T01:16:22;100026.09;;;11.83;96.51
12897;BME280;6516;35.028;32.372;2023-05-01T01:19:01;100022.53;;;11.84;96.35
12897;BME280;6516;35.028;32.372;2023-05-01T01:21:37;100014.53;;;11.89;96.03
12897;BME280;6516;35.028;32.372;2023-05-01T01:24:27;100018.88;;;11.90;95.78
12897;BME280;6516;35.028;32.372;2023-05-01T01:27:29;100019.69;;;11.92;95.27
12897;BME280;6516;35.028;32.372;2023-05-01T01:30:30;100016.19;;;11.93;94.70
12897;BME280;6516;35.028;32.372;2023-05-01T01:34:02;100014.06;;;11.72;94.61
12897;BME280;6516;35.028;32.372;2023-05-01T01:36:40;100017.88;;;11.59;94.95
12897;BME280;6516;35.028;32.372;2023-05-01T01:39:15;100024.41;;;11.43;95.70
12897;BME280;6516;35.028;32.372;2023-05-01T01:41:54;100020.16;;;11.37;96.05
12897;BME280;6516;35.028;32.372;2023-05-01T01:44:29;100024.47;;;11.40;96.55
12897;BME280;6516;35.028;32.372;2023-05-01T01:47:04;100025.25;;;11.45;96.66
12897;BME280;6516;35.028;32.372;2023-05-01T01:49:41;100028.66;;;11.48;96.57
12897;BME280;6516;35.028;32.372;2023-05-01T01:52:12;100027.66;;;11.54;96.23
12897;BME280;6516;35.028;32.372;2023-05-01T01:54:45;100017.88;;;11.60;96.05
12897;BME280;6516;35.028;32.372;2023-05-01T01:57:18;100022.19;;;11.63;95.51
12897;BME280;6516;35.028;32.372;2023-05-01T01:59:48;100025.09;;;11.51;95.40
12897;BME280;6516;35.028;32.372;2023-05-01T02:02:19;100023.63;;;11.38;95.29
12897;BME280;6516;35.028;32.372;2023-05-01T02:04:50;100033.50;;;11.30;95.77
12897;BME280;6516;35.028;32.372;2023-05-01T02:07:19;100035.28;;;11.27;96.38
12897;BME280;6516;35.028;32.372;2023-05-01T02:09:49;100032.66;;;11.27;96.71
12897;BME280;6516;35.028;32.372;2023-05-01T02:12:20;100023.81;;;11.30;96.85
12897;BME280;6516;35.028;32.372;2023-05-01T02:14:52;100022.81;;;11.36;97.16
12897;BME280;6516;35.028;32.372;2023-05-01T02:17:20;100018.28;;;11.42;97.13
12897;BME280;6516;35.028;32.372;2023-05-01T02:19:50;100029.59;;;11.46;96.70
12897;BME280;6516;35.028;32.372;2023-05-01T02:22:20;100027.75;;;11.49;96.37
12897;BME280;6516;35.028;32.372;2023-05-01T02:24:51;100020.66;;;11.53;96.29
12897;BME280;6516;35.028;32.372;2023-05-01T02:27:22;100021.44;;;11.56;96.19
12897;BME280;6516;35.028;32.372;2023-05-01T02:29:52;100020.50;;;11.59;96.17
12897;BME280;6516;35.028;32.372;2023-05-01T02:32:20;100018.78;;;11.58;95.96
12897;BME280;6516;35.028;32.372;2023-05-01T02:34:47;100019.81;;;11.51;95.83
12897;BME280;6516;35.028;32.372;2023-05-01T02:37:17;100026.00;;;11.50;95.94
12897;BME280;6516;35.028;32.372;2023-05-01T02:39:44;100028.75;;;11.45;96.15
12897;BME280;6516;35.028;32.372;2023-05-01T02:42:14;100025.03;;;11.54;96.24
12897;BME280;6516;35.028;32.372;2023-05-01T02:44:47;100027.41;;;11.66;96.39
12897;BME280;6516;35.028;32.372;2023-05-01T02:47:19;100023.44;;;11.83;96.20
12897;BME280;6516;35.028;32.372;2023-05-01T02:49:50;100029.38;;;11.93;95.90
12897;BME280;6516;35.028;32.372;2023-05-01T02:52:19;100024.09;;;11.93;95.83
12897;BME280;6516;35.028;32.372;2023-05-01T02:54:48;100031.16;;;11.91;95.81
12897;BME280;6516;35.028;32.372;2023-05-01T02:57:16;100026.72;;;11.93;96.03
12897;BME280;6516;35.028;32.372;2023-05-01T02:59:46;100019.63;;;11.95;95.84
12897;BME280;6516;35.028;32.372;2023-05-01T03:02:14;100021.34;;;11.96;95.94
12897;BME280;6516;35.028;32.372;2023-05-01T03:04:42;100024.88;;;11.96;95.96
12897;BME280;6516;35.028;32.372;2023-05-01T03:07:11;100030.88;;;12.03;96.19
12897;BME280;6516;35.028;32.372;2023-05-01T03:09:39;100023.66;;;12.09;95.93
12897;BME280;6516;35.028;32.372;2023-05-01T03:12:07;100022.72;;;12.12;95.75
12897;BME280;6516;35.028;32.372;2023-05-01T03:14:34;100027.88;;;12.15;95.75
12897;BME280;6516;35.028;32.372;2023-05-01T03:17:02;100027.88;;;12.15;95.51
12897;BME280;6516;35.028;32.372;2023-05-01T03:19:30;100032.22;;;12.17;95.40
12897;BME280;6516;35.028;32.372;2023-05-01T03:21:58;100039.16;;;12.21;95.32
12897;BME280;6516;35.028;32.372;2023-05-01T03:24:28;100039.81;;;12.29;95.13
12897;BME280;6516;35.028;32.372;2023-05-01T03:26:55;100040.44;;;12.40;94.90
12897;BME280;6516;35.028;32.372;2023-05-01T03:29:23;100036.69;;;12.47;94.49
12897;BME280;6516;35.028;32.372;2023-05-01T03:31:51;100035.66;;;12.53;94.54
12897;BME280;6516;35.028;32.372;2023-05-01T03:34:19;100047.78;;;12.60;94.41
12897;BME280;6516;35.028;32.372;2023-05-01T03:36:47;100047.53;;;12.69;94.07
12897;BME280;6516;35.028;32.372;2023-05-01T03:39:15;100050.81;;;12.77;93.71
12897;BME280;6516;35.028;32.372;2023-05-01T03:41:45;100055.78;;;12.89;93.35
12897;BME280;6516;35.028;32.372;2023-05-01T03:44:13;100056.38;;;12.98;92.87
12897;BME280;6516;35.028;32.372;2023-05-01T03:46:40;100057.81;;;13.10;92.45
12897;BME280;6516;35.028;32.372;2023-05-01T03:49:09;100061.75;;;13.26;91.86
12897;BME280;6516;35.028;32.372;2023-05-01T03:51:37;100067.56;;;13.37;91.10
12897;BME280;6516;35.028;32.372;2023-05-01T03:54:05;100064.63;;;13.46;90.58
12897;BME280;6516;35.028;32.372;2023-05-01T03:56:32;100067.81;;;13.57;90.04
12897;BME280;6516;35.028;32.372;2023-05-01T03:59:03;100062.97;;;13.71;89.29
12897;BME280;6516;35.028;32.372;2023-05-01T04:01:30;100075.59;;;13.89;88.53
12897;BME280;6516;35.028;32.372;2023-05-01T04:03:59;100074.69;;;14.16;87.32
12897;BME280;6516;35.028;32.372;2023-05-01T04:06:27;100069.50;;;14.65;84.19
12897;BME280;6516;35.028;32.372;2023-05-01T04:08:55;100074.59;;;15.17;81.71
12897;BME280;6516;35.028;32.372;2023-05-01T04:11:23;100079.44;;;15.75;79.73
12897;BME280;6516;35.028;32.372;2023-05-01T04:13:51;100073.47;;;16.33;77.56
12897;BME280;6516;35.028;32.372;2023-05-01T04:16:20;100077.75;;;16.97;74.49
12897;BME280;6516;35.028;32.372;2023-05-01T04:18:48;100067.59;;;17.62;73.59
12897;BME280;6516;35.028;32.372;2023-05-01T04:21:15;100075.31;;;18.03;71.63
12897;BME280;6516;35.028;32.372;2023-05-01T04:23:43;100077.06;;;18.21;70.25
12897;BME280;6516;35.028;32.372;2023-05-01T04:26:11;100077.22;;;18.18;69.72
12897;BME280;6516;35.028;32.372;2023-05-01T04:28:39;100082.69;;;18.15;69.68
12897;BME280;6516;35.028;32.372;2023-05-01T04:31:06;100079.78;;;18.03;69.80
12897;BME280;6516;35.028;32.372;2023-05-01T04:33:36;100089.03;;;17.96;69.96
12897;BME280;6516;35.028;32.372;2023-05-01T04:36:04;100082.13;;;17.92;70.46
12897;BME280;6516;35.028;32.372;2023-05-01T04:38:32;100083.06;;;17.91;69.71
12897;BME280;6516;35.028;32.372;2023-05-01T04:41:01;100092.59;;;17.95;69.47
12897;BME280;6516;35.028;32.372;2023-05-01T04:43:30;100088.91;;;17.97;68.52
12897;BME280;6516;35.028;32.372;2023-05-01T04:45:58;100094.47;;;18.11;67.72
12897;BME280;6516;35.028;32.372;2023-05-01T04:48:26;100084.88;;;18.43;66.42
12897;BME280;6516;35.028;32.372;2023-05-01T04:50:55;100082.41;;;19.06;65.00
12897;BME280;6516;35.028;32.372;2023-05-01T04:53:23;100082.72;;;19.50;60.77
12897;BME280;6516;35.028;32.372;2023-05-01T04:55:50;100084.25;;;20.01;59.41
12897;BME280;6516;35.028;32.372;2023-05-01T04:58:18;100088.97;;;20.42;57.22
12897;BME280;6516;35.028;32.372;2023-05-01T05:00:46;100087.03;;;20.74;54.79
12897;BME280;6516;35.028;32.372;2023-05-01T05:03:14;100091.47;;;21.04;54.25
12897;BME280;6516;35.028;32.372;2023-05-01T05:05:43;100092.78;;;21.25;53.90
12897;BME280;6516;35.028;32.372;2023-05-01T05:08:13;100093.56;;;21.41;54.35
12897;BME280;6516;35.028;32.372;2023-05-01T05:10:40;100096.63;;;21.63;53.92
12897;BME280;6516;35.028;32.372;2023-05-01T05:13:08;100100.22;;;21.62;51.11
12897;BME280;6516;35.028;32.372;2023-05-01T05:15:36;100102.81;;;21.64;49.09
12897;BME280;6516;35.028;32.372;2023-05-01T05:18:04;100105.31;;;21.81;48.85
12897;BME280;6516;35.028;32.372;2023-05-01T05:20:31;100106.72;;;22.00;48.37
12897;BME280;6516;35.028;32.372;2023-05-01T05:22:59;100099.66;;;21.99;48.77
12897;BME280;6516;35.028;32.372;2023-05-01T05:25:28;100099.03;;;22.08;49.55
12897;BME280;6516;35.028;32.372;2023-05-01T05:27:56;100099.78;;;22.10;49.01
12897;BME280;6516;35.028;32.372;2023-05-01T05:30:25;100100.94;;;22.33;49.41
12897;BME280;6516;35.028;32.372;2023-05-01T05:32:52;100104.69;;;22.30;46.71
12897;BME280;6516;35.028;32.372;2023-05-01T05:35:20;100107.16;;;22.47;48.26
12897;BME280;6516;35.028;32.372;2023-05-01T05:37:48;100098.59;;;22.55;47.74
12897;BME280;6516;35.028;32.372;2023-05-01T05:40:16;100095.88;;;22.81;47.14
12897;BME280;6516;35.028;32.372;2023-05-01T05:42:46;100101.47;;;23.03;45.93
12897;BME280;6516;35.028;32.372;2023-05-01T05:45:13;100112.91;;;23.44;45.15
12897;BME280;6516;35.028;32.372;2023-05-01T05:47:41;100110.72;;;23.62;45.19
12897;BME280;6516;35.028;32.372;2023-05-01T05:50:09;100125.53;;;23.80;42.05
12897;BME280;6516;35.028;32.372;2023-05-01T05:52:37;100131.13;;;23.77;42.04
12897;BME280;6516;35.028;32.372;2023-05-01T05:55:06;100129.44;;;23.63;43.82
12897;BME280;6516;35.028;32.372;2023-05-01T05:57:34;100126.97;;;23.60;43.69
12897;BME280;6516;35.028;32.372;2023-05-01T06:00:05;100131.59;;;23.46;44.24
12897;BME280;6516;35.028;32.372;2023-05-01T06:02:34;100137.50;;;23.38;45.61
12897;BME280;6516;35.028;32.372;2023-05-01T06:05:01;100133.75;;;23.28;45.61
12897;BME280;6516;35.028;32.372;2023-05-01T06:07:29;100139.50;;;22.97;45.67
12897;BME280;6516;35.028;32.372;2023-05-01T06:09:57;100132.72;;;22.92;45.93
12897;BME280;6516;35.028;32.372;2023-05-01T06:12:29;100132.84;;;22.90;45.90
12897;BME280;6516;35.028;32.372;2023-05-01T06:14:57;100135.16;;;22.82;45.88
12897;BME280;6516;35.028;32.372;2023-05-01T06:17:27;100132.94;;;23.01;46.08
12897;BME280;6516;35.028;32.372;2023-05-01T06:19:55;100135.19;;;23.07;44.75
12897;BME280;6516;35.028;32.372;2023-05-01T06:22:23;100125.97;;;23.11;43.90
12897;BME280;6516;35.028;32.372;2023-05-01T06:24:50;100137.94;;;23.20;43.89
12897;BME280;6516;35.028;32.372;2023-05-01T06:27:18;100147.97;;;23.30;44.35
12897;BME280;6516;35.028;32.372;2023-05-01T06:29:47;100152.16;;;23.47;43.98
12897;BME280;6516;35.028;32.372;2023-05-01T06:32:15;100150.53;;;23.57;44.11
12897;BME280;6516;35.028;32.372;2023-05-01T06:34:44;100143.00;;;23.62;43.11
12897;BME280;6516;35.028;32.372;2023-05-01T06:37:12;100154.78;;;23.84;43.23
12897;BME280;6516;35.028;32.372;2023-05-01T06:39:40;100160.78;;;24.13;42.10
12897;BME280;6516;35.028;32.372;2023-05-01T06:42:08;100154.41;;;24.26;42.30
12897;BME280;6516;35.028;32.372;2023-05-01T06:44:40;100158.47;;;24.55;42.87
12897;BME280;6516;35.028;32.372;2023-05-01T06:47:09;100163.59;;;24.71;42.32
12897;BME280;6516;35.028;32.372;2023-05-01T06:49:37;100165.00;;;24.87;41.12
12897;BME280;6516;35.028;32.372;2023-05-01T06:52:06;100165.56;;;25.03;41.14
12897;BME280;6516;35.028;32.372;2023-05-01T06:54:34;100163.66;;;25.16;39.95
12897;BME280;6516;35.028;32.372;2023-05-01T06:57:05;100167.31;;;25.15;40.30
12897;BME280;6516;35.028;32.372;2023-05-01T06:59:32;100173.91;;;25.11;39.73
12897;BME280;6516;35.028;32.372;2023-05-01T07:02:00;100178.66;;;25.31;39.72
12897;BME280;6516;35.028;32.372;2023-05-01T07:04:28;100184.16;;;25.30;40.03
12897;BME280;6516;35.028;32.372;2023-05-01T07:06:56;100188.41;;;25.56;39.85
12897;BME280;6516;35.028;32.372;2023-05-01T07:09:25;100187.81;;;25.85;40.11
12897;BME280;6516;35.028;32.372;2023-05-01T07:11:52;100198.16;;;26.02;39.01
12897;BME280;6516;35.028;32.372;2023-05-01T07:14:21;100215.31;;;26.01;39.16
12897;BME280;6516;35.028;32.372;2023-05-01T07:16:49;100208.03;;;25.69;41.87
12897;BME280;6516;35.028;32.372;2023-05-01T07:19:17;100216.56;;;25.17;42.71
12897;BME280;6516;35.028;32.372;2023-05-01T07:21:45;100215.69;;;24.46;44.59
12897;BME280;6516;35.028;32.372;2023-05-01T07:24:12;100208.78;;;24.06;45.37
12897;BME280;6516;35.028;32.372;2023-05-01T07:26:42;100206.09;;;23.56;46.05
12897;BME280;6516;35.028;32.372;2023-05-01T07:29:10;100210.75;;;24.04;46.75
12897;BME280;6516;35.028;32.372;2023-05-01T07:31:41;100218.47;;;24.21;45.60
12897;BME280;6516;35.028;32.372;2023-05-01T07:34:08;100214.28;;;24.41;46.32
12897;BME280;6516;35.028;32.372;2023-05-01T07:36:36;100216.88;;;24.42;45.20
12897;BME280;6516;35.028;32.372;2023-05-01T07:39:04;100219.19;;;24.95;45.27
12897;BME280;6516;35.028;32.372;2023-05-01T07:41:32;100220.09;;;25.18;44.97
12897;BME280;6516;35.028;32.372;2023-05-01T07:44:01;100221.56;;;25.34;42.62
12897;BME280;6516;35.028;32.372;2023-05-01T07:46:30;100228.75;;;25.57;42.89
12897;BME280;6516;35.028;32.372;2023-05-01T07:48:59;100224.94;;;25.25;43.55
12897;BME280;6516;35.028;32.372;2023-05-01T07:51:26;100225.88;;;25.48;43.29
12897;BME280;6516;35.028;32.372;2023-05-01T07:53:54;100219.88;;;25.55;43.41
12897;BME280;6516;35.028;32.372;2023-05-01T07:56:22;100219.59;;;25.36;43.21
12897;BME280;6516;35.028;32.372;2023-05-01T07:58:50;100224.00;;;25.26;43.50
12897;BME280;6516;35.028;32.372;2023-05-01T08:01:19;100225.97;;;25.35;43.66
12897;BME280;6516;35.028;32.372;2023-05-01T08:03:47;100225.59;;;25.40;42.61
12897;BME280;6516;35.028;32.372;2023-05-01T08:06:15;100225.91;;;25.59;42.35
12897;BME280;6516;35.028;32.372;2023-05-01T08:08:42;100226.47;;;25.40;42.89
12897;BME280;6516;35.028;32.372;2023-05-01T08:11:10;100240.19;;;25.37;43.93
12897;BME280;6516;35.028;32.372;2023-05-01T08:13:38;100229.69;;;25.56;43.97
12897;BME280;6516;35.028;32.372;2023-05-01T08:16:06;100235.34;;;25.64;42.58
12897;BME280;6516;35.028;32.372;2023-05-01T08:18:36;100228.56;;;26.04;41.78
12897;BME280;6516;35.028;32.372;2023-05-01T08:21:03;100236.44;;;26.29;41.52
12897;BME280;6516;35.028;32.372;2023-05-01T08:23:31;100233.22;;;26.13;41.59
12897;BME280;6516;35.028;32.372;2023-05-01T08:25:59;100235.66;;;26.38;41.13
12897;BME280;6516;35.028;32.372;2023-05-01T08:28:27;100236.63;;;26.37;40.99
12897;BME280;6516;35.028;32.372;2023-05-01T08:30:54;100234.59;;;26.19;40.20
12897;BME280;6516;35.028;32.372;2023-05-01T08:33:22;100228.81;;;26.12;39.91
12897;BME280;6516;35.028;32.372;2023-05-01T08:35:51;100233.56;;;26.09;40.46
12897;BME280;6516;35.028;32.372;2023-05-01T08:38:19;100227.34;;;26.08;40.51
12897;BME280;6516;35.028;32.372;2023-05-01T08:40:52;100227.09;;;26.11;40.16
12897;BME280;6516;35.028;32.372;2023-05-01T08:43:21;100224.63;;;26.30;39.38
12897;BME280;6516;35.028;32.372;2023-05-01T08:45:50;100230.91;;;26.20;40.02
12897;BME280;6516;35.028;32.372;2023-05-01T08:48:21;100216.91;;;26.04;39.22
12897;BME280;6516;35.028;32.372;2023-05-01T08:50:54;100228.50;;;25.71;39.10
12897;BME280;6516;35.028;32.372;2023-05-01T08:53:24;100220.94;;;26.09;39.11
12897;BME280;6516;35.028;32.372;2023-05-01T08:55:54;100231.66;;;25.54;39.80
12897;BME280;6516;35.028;32.372;2023-05-01T08:58:24;100235.94;;;25.46;39.80
12897;BME280;6516;35.028;32.372;2023-05-01T09:00:53;100239.69;;;25.32;40.60
12897;BME280;6516;35.028;32.372;2023-05-01T09:03:23;100235.91;;;25.35;40.68
12897;BME280;6516;35.028;32.372;2023-05-01T09:05:53;100226.72;;;25.37;40.22
12897;BME280;6516;35.028;32.372;2023-05-01T09:08:21;100225.72;;;25.38;41.31
12897;BME280;6516;35.028;32.372;2023-05-01T09:10:50;100226.03;;;25.68;40.76
12897;BME280;6516;35.028;32.372;2023-05-01T09:13:18;100225.56;;;25.74;40.71
12897;BME280;6516;35.028;32.372;2023-05-01T09:15:46;100219.91;;;25.88;39.97
12897;BME280;6516;35.028;32.372;2023-05-01T09:18:14;100226.38;;;25.98;40.15
12897;BME280;6516;35.028;32.372;2023-05-01T09:20:42;100224.00;;;25.83;40.59
12897;BME280;6516;35.028;32.372;2023-05-01T09:23:11;100229.13;;;25.75;41.75
12897;BME280;6516;35.028;32.372;2023-05-01T09:25:39;100229.47;;;25.70;42.57
12897;BME280;6516;35.028;32.372;2023-05-01T09:28:07;100231.56;;;24.98;44.44
12897;BME280;6516;35.028;32.372;2023-05-01T09:30:36;100223.41;;;25.10;44.56
12897;BME280;6516;35.028;32.372;2023-05-01T09:33:08;100221.50;;;25.23;44.33
12897;BME280;6516;35.028;32.372;2023-05-01T09:35:51;100217.16;;;25.10;44.81
12897;BME280;6516;35.028;32.372;2023-05-01T09:38:22;100213.22;;;25.37;44.98
12897;BME280;6516;35.028;32.372;2023-05-01T09:40:53;100218.44;;;25.62;44.76
12897;BME280;6516;35.028;32.372;2023-05-01T09:43:26;100211.34;;;25.61;44.38
12897;BME280;6516;35.028;32.372;2023-05-01T09:45:59;100214.41;;;25.79;44.51
12897;BME280;6516;35.028;32.372;2023-05-01T09:48:31;100217.66;;;25.15;44.77
12897;BME280;6516;35.028;32.372;2023-05-01T09:50:59;100216.47;;;24.95;45.71
12897;BME280;6516;35.028;32.372;2023-05-01T09:53:38;100209.69;;;24.79;46.01
12897;BME280;6516;35.028;32.372;2023-05-01T09:56:06;100215.22;;;24.88;46.22
12897;BME280;6516;35.028;32.372;2023-05-01T09:58:35;100215.88;;;24.92;45.66
12897;BME280;6516;35.028;32.372;2023-05-01T10:01:03;100213.63;;;25.20;45.25
12897;BME280;6516;35.028;32.372;2023-05-01T10:03:33;100213.97;;;25.39;45.11
12897;BME280;6516;35.028;32.372;2023-05-01T10:06:00;100214.00;;;25.50;43.99
12897;BME280;6516;35.028;32.372;2023-05-01T10:08:46;100211.50;;;26.15;43.45
12897;BME280;6516;35.028;32.372;2023-05-01T10:11:14;100228.81;;;26.12;43.51
12897;BME280;6516;35.028;32.372;2023-05-01T10:13:42;100224.50;;;25.42;44.67
12897;BME280;6516;35.028;32.372;2023-05-01T10:16:28;100233.66;;;24.58;45.65
12897;BME280;6516;35.028;32.372;2023-05-01T10:18:56;100217.69;;;24.91;45.59
12897;BME280;6516;35.028;32.372;2023-05-01T10:21:24;100222.31;;;25.13;45.64
12897;BME280;6516;35.028;32.372;2023-05-01T10:23:54;100222.63;;;25.77;43.73
12897;BME280;6516;35.028;32.372;2023-05-01T10:26:22;100229.00;;;25.87;43.54
12897;BME280;6516;35.028;32.372;2023-05-01T10:28:51;100230.56;;;25.68;43.63
12897;BME280;6516;35.028;32.372;2023-05-01T10:31:19;100222.84;;;25.74;43.90
12897;BME280;6516;35.028;32.372;2023-05-01T10:33:46;100230.94;;;25.63;43.64
12897;BME280;6516;35.028;32.372;2023-05-01T10:36:18;100228.25;;;25.52;43.72
12897;BME280;6516;35.028;32.372;2023-05-01T10:38:47;100232.97;;;25.38;45.26
12897;BME280;6516;35.028;32.372;2023-05-01T10:44:36;100224.88;;;25.94;43.27
12897;BME280;6516;35.028;32.372;2023-05-01T10:50:12;100226.00;;;26.14;43.01
12897;BME280;6516;35.028;32.372;2023-05-01T10:53:17;100233.47;;;26.10;42.36
12897;BME280;6516;35.028;32.372;2023-05-01T10:55:47;100237.38;;;26.39;41.06
12897;BME280;6516;35.028;32.372;2023-05-01T11:01:27;100230.16;;;26.29;40.04
12897;BME280;6516;35.028;32.372;2023-05-01T11:04:00;100239.56;;;25.90;40.28
12897;BME280;6516;35.028;32.372;2023-05-01T11:06:29;100239.44;;;25.92;40.31
12897;BME280;6516;35.028;32.372;2023-05-01T11:08:59;100240.28;;;25.81;41.58
12897;BME280;6516;35.028;32.372;2023-05-01T11:11:47;100236.03;;;26.34;40.96
12897;BME280;6516;35.028;32.372;2023-05-01T11:14:19;100237.25;;;26.30;40.22
12897;BME280;6516;35.028;32.372;2023-05-01T11:16:47;100238.00;;;26.65;39.74
12897;BME280;6516;35.028;32.372;2023-05-01T11:19:44;100246.22;;;25.97;40.63
12897;BME280;6516;35.028;32.372;2023-05-01T11:22:15;100246.22;;;25.97;40.41
12897;BME280;6516;35.028;32.372;2023-05-01T11:24:44;100243.59;;;25.85;40.64
12897;BME280;6516;35.028;32.372;2023-05-01T11:27:13;100256.09;;;25.29;41.44
12897;BME280;6516;35.028;32.372;2023-05-01T11:29:44;100248.97;;;25.28;40.43
12897;BME280;6516;35.028;32.372;2023-05-01T11:32:17;100259.69;;;24.94;42.02
12897;BME280;6516;35.028;32.372;2023-05-01T11:34:45;100249.50;;;25.10;42.32
12897;BME280;6516;35.028;32.372;2023-05-01T11:37:15;100252.81;;;25.13;42.30
12897;BME280;6516;35.028;32.372;2023-05-01T11:39:50;100243.34;;;25.77;41.87
12897;BME280;6516;35.028;32.372;2023-05-01T11:42:20;100236.16;;;26.10;41.05
12897;BME280;6516;35.028;32.372;2023-05-01T11:45:09;100241.34;;;25.57;40.91
12897;BME280;6516;35.028;32.372;2023-05-01T11:47:38;100245.50;;;25.95;40.81
12897;BME280;6516;35.028;32.372;2023-05-01T11:50:08;100232.84;;;26.18;40.60
12897;BME280;6516;35.028;32.372;2023-05-01T11:52:44;100234.41;;;25.87;41.02
12897;BME280;6516;35.028;32.372;2023-05-01T11:55:14;100223.16;;;26.15;40.76
12897;BME280;6516;35.028;32.372;2023-05-01T11:57:46;100230.13;;;26.40;40.16
12897;BME280;6516;35.028;32.372;2023-05-01T12:00:26;100226.56;;;26.50;39.63
12897;BME280;6516;35.028;32.372;2023-05-01T12:02:58;100237.41;;;26.17;40.42
12897;BME280;6516;35.028;32.372;2023-05-01T12:05:28;100234.25;;;25.67;40.28
12897;BME280;6516;35.028;32.372;2023-05-01T12:08:12;100235.63;;;25.61;41.08
12897;BME280;6516;35.028;32.372;2023-05-01T12:10:46;100228.31;;;25.40;40.87
12897;BME280;6516;35.028;32.372;2023-05-01T12:13:16;100232.84;;;25.16;41.05
12897;BME280;6516;35.028;32.372;2023-05-01T12:15:47;100231.28;;;25.24;41.31
12897;BME280;6516;35.028;32.372;2023-05-01T12:18:16;100236.94;;;24.98;42.00
12897;BME280;6516;35.028;32.372;2023-05-01T12:20:46;100238.59;;;25.11;41.40
12897;BME280;6516;35.028;32.372;2023-05-01T12:23:17;100233.13;;;25.24;41.16
12897;BME280;6516;35.028;32.372;2023-05-01T12:25:47;100228.97;;;25.54;40.72
12897;BME280;6516;35.028;32.372;2023-05-01T12:28:15;100228.03;;;25.66;40.04
12897;BME280;6516;35.028;32.372;2023-05-01T12:30:50;100225.28;;;25.55;39.60
12897;BME280;6516;35.028;32.372;2023-05-01T12:33:21;100226.59;;;25.50;40.72
12897;BME280;6516;35.028;32.372;2023-05-01T12:35:49;100227.31;;;25.41;40.98
12897;BME280;6516;35.028;32.372;2023-05-01T12:38:18;100233.75;;;25.62;41.06
12897;BME280;6516;35.028;32.372;2023-05-01T12:40:51;100233.59;;;25.41;41.13
12897;BME280;6516;35.028;32.372;2023-05-01T12:43:21;100225.41;;;25.54;41.02
12897;BME280;6516;35.028;32.372;2023-05-01T12:45:57;100228.78;;;25.90;40.24
12897;BME280;6516;35.028;32.372;2023-05-01T12:48:25;100225.47;;;25.87;40.05
12897;BME280;6516;35.028;32.372;2023-05-01T12:50:53;100225.31;;;25.88;40.07
12897;BME280;6516;35.028;32.372;2023-05-01T12:53:23;100217.47;;;25.74;40.41
12897;BME280;6516;35.028;32.372;2023-05-01T12:55:52;100212.81;;;25.87;40.39
12897;BME280;6516;35.028;32.372;2023-05-01T12:58:21;100218.09;;;25.89;40.22
12897;BME280;6516;35.028;32.372;2023-05-01T13:00:50;100215.38;;;25.67;40.68
12897;BME280;6516;35.028;32.372;2023-05-01T13:03:24;100217.50;;;25.96;40.27
12897;BME280;6516;35.028;32.372;2023-05-01T13:05:54;100220.31;;;25.95;39.71
12897;BME280;6516;35.028;32.372;2023-05-01T13:08:25;100219.75;;;26.02;39.59
12897;BME280;6516;35.028;32.372;2023-05-01T13:10:55;100216.66;;;26.18;39.38
12897;BME280;6516;35.028;32.372;2023-05-01T13:13:25;100223.22;;;25.70;40.02
12897;BME280;6516;35.028;32.372;2023-05-01T13:16:03;100226.31;;;25.87;39.93